메인 페이지
METAR-TAF:

METAR-TAF

공항 :

오산공군기지

오산, 대한민국

위도: 37-06N, 경도: 127-02E, 고도: 11m

현재 날씨관측

예보는 1 시간 2분 전, 07:58시(UTC)에 발표되었습니다.
남동8kt
온도 22°C
습도 53%
기압 1016 hPa
시정: 11.3km
고도 4400ft 상공 구름 많음
고도 20000ft 상공 흐림

METAR: RKSO 210758Z 14008KT 7SM BKN044 OVC200 22/12 A3001 RMK AO2A SLP166 T02150118 $

시각: 18:00 (09:00 UTC)

예보

예보는 6 시간 0분 전, 03:00시(UTC)에 발표되었습니다.
예보 대상 시간: 21일 03시부터 22일 09시까지 (UTC)
동남동9kt
시정 10km 이상
고도 4000ft 상공 구름 보통
고도 20000ft 상공 구름 보통
전환 중
21일 10시부터 21일 11시까지 (UTC)
동남동6kt
시정 10km 이상
고도 6000ft 상공 구름 조금
전환 중
21일 16시부터 21일 17시까지 (UTC)
동남동8kt
시정 10km 이상
고도 4000ft 상공 구름 많음
고도 18000ft 상공 구름 많음
전환 중
22일 03시부터 22일 04시까지 (UTC)
남남동6kt
시정 10km 이상
고도 7000ft 상공 구름 많음
고도 16000ft 상공 흐림

TAF: RKSO 210300Z 2103/2209 12009KT 9999 SCT040 SCT200 QNH3006INS BECMG 2110/2111 12006KT 9999 FEW060 QNH3009INS BECMG 2116/2117 12008KT 9999 BKN040 BKN180 QNH2993INS BECMG 2203/2204 15006KT 9999 BKN070 OVC160 QNH2985INS TX24/2106Z TN08/2119Z

4,000개 이상의 공항 관측 자료 및 예보 (METAR 및 TAF 보고).

지도상에서 검색 가능한 기상관측소가 노란 점과 빨간 점으로 표시되어 있습니다.

기상관측소 명을 보려면 표시 위로 마우스를 이동하세요.

날씨 관측과 예보를 보려면 클릭하세요.

지도 변경 : 확대하려면 엑스 표시가 있는 녹색 버튼, 축소하려면 빼기 표시가 있는 녹색 버튼, 다음 페이지의 지도를 보려면 녹색 화살표를 클릭하세요.


METAR-TAF: